sensor_id;sensor_type;location;lat;lon;timestamp;pressure;altitude;pressure_sealevel;temperature;humidity
68628;BME280;55611;48.602;9.490;2022-09-24T00:01:32;96660;;;14.5;60.5
68628;BME280;55611;48.602;9.490;2022-09-24T00:04:03;96650;;;14.5;60.5
68628;BME280;55611;48.602;9.490;2022-09-24T00:06:36;96660;;;14.5;60.5
68628;BME280;55611;48.602;9.490;2022-09-24T00:09:04;96660;;;14.5;60.5
68628;BME280;55611;48.602;9.490;2022-09-24T00:11:34;96650;;;14.5;60.5
68628;BME280;55611;48.602;9.490;2022-09-24T00:14:05;96650;;;14.6;60.5
68628;BME280;55611;48.602;9.490;2022-09-24T00:16:35;96650;;;14.6;60.5
68628;BME280;55611;48.602;9.490;2022-09-24T00:19:05;96650;;;14.6;60.5
68628;BME280;55611;48.602;9.490;2022-09-24T00:21:36;96640;;;14.6;60.5
68628;BME280;55611;48.602;9.490;2022-09-24T00:24:07;96640;;;14.6;60.5
68628;BME280;55611;48.602;9.490;2022-09-24T00:26:37;96640;;;14.6;60.5
68628;BME280;55611;48.602;9.490;2022-09-24T00:29:08;96630;;;14.7;60.5
68628;BME280;55611;48.602;9.490;2022-09-24T00:31:38;96630;;;14.7;60.5
68628;BME280;55611;48.602;9.490;2022-09-24T00:34:08;96630;;;14.6;60.5
68628;BME280;55611;48.602;9.490;2022-09-24T00:36:39;96620;;;14.6;60.5
68628;BME280;55611;48.602;9.490;2022-09-24T00:39:09;96620;;;14.6;60.5
68628;BME280;55611;48.602;9.490;2022-09-24T00:41:40;96620;;;14.6;60.5
68628;BME280;55611;48.602;9.490;2022-09-24T00:45:14;96620;;;14.6;60.5
68628;BME280;55611;48.602;9.490;2022-09-24T00:46:41;96620;;;14.6;60.5
68628;BME280;55611;48.602;9.490;2022-09-24T00:49:13;96610;;;14.5;60.5
68628;BME280;55611;48.602;9.490;2022-09-24T00:51:44;96610;;;14.5;60.5
68628;BME280;55611;48.602;9.490;2022-09-24T00:54:14;96610;;;14.5;60.5
68628;BME280;55611;48.602;9.490;2022-09-24T00:56:43;96610;;;14.5;60.5
68628;BME280;55611;48.602;9.490;2022-09-24T00:59:14;96610;;;14.4;60.5
68628;BME280;55611;48.602;9.490;2022-09-24T01:01:44;96600;;;14.4;60.5
68628;BME280;55611;48.602;9.490;2022-09-24T01:04:15;96600;;;14.4;60.5
68628;BME280;55611;48.602;9.490;2022-09-24T01:06:46;96600;;;14.4;60.5
68628;BME280;55611;48.602;9.490;2022-09-24T01:09:16;96600;;;14.4;60.5
68628;BME280;55611;48.602;9.490;2022-09-24T01:14:28;96600;;;14.4;60.5
68628;BME280;55611;48.602;9.490;2022-09-24T01:19:30;96590;;;14.3;60.5
68628;BME280;55611;48.602;9.490;2022-09-24T01:21:49;96590;;;14.3;60.5
68628;BME280;55611;48.602;9.490;2022-09-24T01:24:28;96570;;;14.3;60.5
68628;BME280;55611;48.602;9.490;2022-09-24T01:26:53;96570;;;14.3;60.5
68628;BME280;55611;48.602;9.490;2022-09-24T01:29:25;96570;;;14.3;60.5
68628;BME280;55611;48.602;9.490;2022-09-24T01:31:56;96570;;;14.2;60.5
68628;BME280;55611;48.602;9.490;2022-09-24T01:34:21;96570;;;14.2;60.5
68628;BME280;55611;48.602;9.490;2022-09-24T01:36:52;96570;;;14.2;60.5
68628;BME280;55611;48.602;9.490;2022-09-24T01:39:22;96570;;;14.3;60.5
68628;BME280;55611;48.602;9.490;2022-09-24T01:41:52;96560;;;14.3;60.5
68628;BME280;55611;48.602;9.490;2022-09-24T01:44:23;96560;;;14.3;60.5
68628;BME280;55611;48.602;9.490;2022-09-24T01:46:53;96550;;;14.3;60.5
68628;BME280;55611;48.602;9.490;2022-09-24T01:49:25;96540;;;14.2;60.5
68628;BME280;55611;48.602;9.490;2022-09-24T01:51:56;96550;;;14.2;60.5
68628;BME280;55611;48.602;9.490;2022-09-24T01:54:28;96550;;;14.1;60.5
68628;BME280;55611;48.602;9.490;2022-09-24T01:56:57;96550;;;14;60
68628;BME280;55611;48.602;9.490;2022-09-24T01:59:27;96540;;;14;60
68628;BME280;55611;48.602;9.490;2022-09-24T02:01:59;96540;;;13.9;60
68628;BME280;55611;48.602;9.490;2022-09-24T02:04:27;96540;;;13.9;60
68628;BME280;55611;48.602;9.490;2022-09-24T02:06:59;96540;;;13.9;60.5
68628;BME280;55611;48.602;9.490;2022-09-24T02:09:43;96540;;;13.9;60.5
68628;BME280;55611;48.602;9.490;2022-09-24T02:12:01;96540;;;13.8;60.5
68628;BME280;55611;48.602;9.490;2022-09-24T02:14:30;96550;;;13.7;60
68628;BME280;55611;48.602;9.490;2022-09-24T02:16:59;96540;;;13.6;60
68628;BME280;55611;48.602;9.490;2022-09-24T02:19:30;96540;;;13.6;60
68628;BME280;55611;48.602;9.490;2022-09-24T02:22:01;96540;;;13.6;60.5
68628;BME280;55611;48.602;9.490;2022-09-24T02:24:33;96540;;;13.6;60.5
68628;BME280;55611;48.602;9.490;2022-09-24T02:27:02;96540;;;13.6;60.5
68628;BME280;55611;48.602;9.490;2022-09-24T02:29:32;96540;;;13.7;60.5
68628;BME280;55611;48.602;9.490;2022-09-24T02:32:03;96550;;;13.7;60.5
68628;BME280;55611;48.602;9.490;2022-09-24T02:34:34;96550;;;13.8;60.5
68628;BME280;55611;48.602;9.490;2022-09-24T02:37:05;96540;;;13.8;60.5
68628;BME280;55611;48.602;9.490;2022-09-24T02:39:34;96540;;;13.8;60.5
68628;BME280;55611;48.602;9.490;2022-09-24T02:42:05;96520;;;13.9;60.5
68628;BME280;55611;48.602;9.490;2022-09-24T02:44:35;96520;;;13.9;60.5
68628;BME280;55611;48.602;9.490;2022-09-24T02:47:06;96520;;;13.9;60.5
68628;BME280;55611;48.602;9.490;2022-09-24T02:49:36;96520;;;13.9;60.5
68628;BME280;55611;48.602;9.490;2022-09-24T02:52:07;96530;;;13.9;60.5
68628;BME280;55611;48.602;9.490;2022-09-24T02:54:37;96530;;;13.9;60.5
68628;BME280;55611;48.602;9.490;2022-09-24T02:57:08;96540;;;13.9;60.5
68628;BME280;55611;48.602;9.490;2022-09-24T02:59:38;96540;;;14;60.5
68628;BME280;55611;48.602;9.490;2022-09-24T03:02:09;96530;;;14;60.5
68628;BME280;55611;48.602;9.490;2022-09-24T03:04:39;96530;;;14.1;60.5
68628;BME280;55611;48.602;9.490;2022-09-24T03:07:10;96530;;;14.1;60.5
68628;BME280;55611;48.602;9.490;2022-09-24T03:09:40;96520;;;14.2;60.5
68628;BME280;55611;48.602;9.490;2022-09-24T03:12:11;96510;;;14.2;60.5
68628;BME280;55611;48.602;9.490;2022-09-24T03:14:41;96510;;;14.3;60.5
68628;BME280;55611;48.602;9.490;2022-09-24T03:17:12;96510;;;14.3;60.5
68628;BME280;55611;48.602;9.490;2022-09-24T03:19:42;96510;;;14.3;60.5
68628;BME280;55611;48.602;9.490;2022-09-24T03:22:13;96510;;;14.3;60.5
68628;BME280;55611;48.602;9.490;2022-09-24T03:24:43;96500;;;14.3;60.5
68628;BME280;55611;48.602;9.490;2022-09-24T03:27:14;96500;;;14.3;60.5
68628;BME280;55611;48.602;9.490;2022-09-24T03:29:45;96490;;;14.3;60.5
68628;BME280;55611;48.602;9.490;2022-09-24T03:32:15;96500;;;14.2;60.5
68628;BME280;55611;48.602;9.490;2022-09-24T03:34:45;96500;;;14.2;60.5
68628;BME280;55611;48.602;9.490;2022-09-24T03:37:16;96500;;;14.2;60.5
68628;BME280;55611;48.602;9.490;2022-09-24T03:39:46;96500;;;14.2;60.5
68628;BME280;55611;48.602;9.490;2022-09-24T03:42:17;96500;;;14.2;60.5
68628;BME280;55611;48.602;9.490;2022-09-24T03:44:47;96510;;;14.2;60.5
68628;BME280;55611;48.602;9.490;2022-09-24T03:47:18;96500;;;14.2;60.5
68628;BME280;55611;48.602;9.490;2022-09-24T03:49:49;96500;;;14.3;60.5
68628;BME280;55611;48.602;9.490;2022-09-24T03:52:19;96490;;;14.3;60.5
68628;BME280;55611;48.602;9.490;2022-09-24T03:54:50;96490;;;14.3;60.5
68628;BME280;55611;48.602;9.490;2022-09-24T03:57:20;96490;;;14.3;60.5
68628;BME280;55611;48.602;9.490;2022-09-24T03:59:51;96490;;;14.2;60.5
68628;BME280;55611;48.602;9.490;2022-09-24T04:02:21;96490;;;14.2;60.5
68628;BME280;55611;48.602;9.490;2022-09-24T04:04:52;96500;;;14.3;60.5
68628;BME280;55611;48.602;9.490;2022-09-24T04:07:22;96500;;;14.3;60.5
68628;BME280;55611;48.602;9.490;2022-09-24T04:09:53;96500;;;14.3;60.5
68628;BME280;55611;48.602;9.490;2022-09-24T04:12:23;96500;;;14.3;60.5
68628;BME280;55611;48.602;9.490;2022-09-24T04:14:54;96510;;;14.4;60.5
68628;BME280;55611;48.602;9.490;2022-09-24T04:17:24;96500;;;14.4;60.5
68628;BME280;55611;48.602;9.490;2022-09-24T04:19:55;96490;;;14.3;60.5
68628;BME280;55611;48.602;9.490;2022-09-24T04:22:25;96490;;;14.3;60.5
68628;BME280;55611;48.602;9.490;2022-09-24T04:24:56;96490;;;14.3;60.5
68628;BME280;55611;48.602;9.490;2022-09-24T04:27:26;96480;;;14.3;60.5
68628;BME280;55611;48.602;9.490;2022-09-24T04:29:57;96480;;;14.3;60.5
68628;BME280;55611;48.602;9.490;2022-09-24T04:32:27;96480;;;14.3;60.5
68628;BME280;55611;48.602;9.490;2022-09-24T04:34:58;96480;;;14.3;60.5
68628;BME280;55611;48.602;9.490;2022-09-24T04:37:28;96480;;;14.3;60.5
68628;BME280;55611;48.602;9.490;2022-09-24T04:39:59;96480;;;14.3;60.5
68628;BME280;55611;48.602;9.490;2022-09-24T04:42:30;96480;;;14.4;60.5
68628;BME280;55611;48.602;9.490;2022-09-24T04:45:00;96480;;;14.4;60.5
68628;BME280;55611;48.602;9.490;2022-09-24T04:47:30;96480;;;14.4;60.5
68628;BME280;55611;48.602;9.490;2022-09-24T04:50:01;96480;;;14.4;60.5
68628;BME280;55611;48.602;9.490;2022-09-24T04:52:31;96480;;;14.4;61
68628;BME280;55611;48.602;9.490;2022-09-24T04:55:02;96480;;;14.4;61
68628;BME280;55611;48.602;9.490;2022-09-24T04:57:32;96490;;;14.5;61
68628;BME280;55611;48.602;9.490;2022-09-24T05:00:04;96480;;;14.5;61
68628;BME280;55611;48.602;9.490;2022-09-24T05:02:33;96480;;;14.5;61
68628;BME280;55611;48.602;9.490;2022-09-24T05:05:04;96480;;;14.5;61
68628;BME280;55611;48.602;9.490;2022-09-24T05:07:35;96480;;;14.6;61
68628;BME280;55611;48.602;9.490;2022-09-24T05:10:05;96480;;;14.6;61
68628;BME280;55611;48.602;9.490;2022-09-24T05:12:36;96470;;;14.6;61
68628;BME280;55611;48.602;9.490;2022-09-24T05:15:06;96480;;;14.6;61
68628;BME280;55611;48.602;9.490;2022-09-24T05:17:37;96480;;;14.6;61
68628;BME280;55611;48.602;9.490;2022-09-24T05:20:07;96480;;;14.7;61
68628;BME280;55611;48.602;9.490;2022-09-24T05:22:39;96480;;;14.7;61
68628;BME280;55611;48.602;9.490;2022-09-24T05:25:08;96480;;;14.7;61
68628;BME280;55611;48.602;9.490;2022-09-24T05:27:46;96490;;;14.7;61
68628;BME280;55611;48.602;9.490;2022-09-24T05:30:09;96480;;;14.7;61
68628;BME280;55611;48.602;9.490;2022-09-24T05:32:40;96490;;;14.7;61
68628;BME280;55611;48.602;9.490;2022-09-24T05:35:10;96490;;;14.7;61
68628;BME280;55611;48.602;9.490;2022-09-24T05:37:41;96490;;;14.7;61
68628;BME280;55611;48.602;9.490;2022-09-24T05:40:11;96490;;;14.7;61
68628;BME280;55611;48.602;9.490;2022-09-24T05:42:42;96490;;;14.7;61
68628;BME280;55611;48.602;9.490;2022-09-24T05:45:12;96500;;;14.8;61
68628;BME280;55611;48.602;9.490;2022-09-24T05:50:13;96500;;;14.8;61
68628;BME280;55611;48.602;9.490;2022-09-24T05:52:44;96500;;;14.8;61
68628;BME280;55611;48.602;9.490;2022-09-24T05:55:14;96500;;;14.8;61
68628;BME280;55611;48.602;9.490;2022-09-24T05:57:45;96500;;;14.8;61
68628;BME280;55611;48.602;9.490;2022-09-24T06:00:15;96500;;;14.8;61
68628;BME280;55611;48.602;9.490;2022-09-24T06:02:46;96510;;;14.7;61
68628;BME280;55611;48.602;9.490;2022-09-24T06:05:16;96500;;;14.7;61
68628;BME280;55611;48.602;9.490;2022-09-24T06:07:47;96510;;;14.7;61
68628;BME280;55611;48.602;9.490;2022-09-24T06:10:17;96500;;;14.7;61
68628;BME280;55611;48.602;9.490;2022-09-24T06:12:48;96510;;;14.7;61
68628;BME280;55611;48.602;9.490;2022-09-24T06:15:19;96500;;;14.6;61
68628;BME280;55611;48.602;9.490;2022-09-24T06:17:51;96510;;;14.6;61
68628;BME280;55611;48.602;9.490;2022-09-24T06:20:20;96500;;;14.6;61
68628;BME280;55611;48.602;9.490;2022-09-24T06:22:53;96490;;;14.7;61
68628;BME280;55611;48.602;9.490;2022-09-24T06:25:20;96500;;;14.9;61
68628;BME280;55611;48.602;9.490;2022-09-24T06:27:54;96500;;;14.8;61
68628;BME280;55611;48.602;9.490;2022-09-24T06:30:22;96500;;;14.8;61
68628;BME280;55611;48.602;9.490;2022-09-24T06:32:52;96500;;;14.7;61
68628;BME280;55611;48.602;9.490;2022-09-24T06:35:23;96510;;;14.7;61
68628;BME280;55611;48.602;9.490;2022-09-24T06:37:53;96520;;;14.7;61
68628;BME280;55611;48.602;9.490;2022-09-24T06:40:24;96510;;;15;61
68628;BME280;55611;48.602;9.490;2022-09-24T06:42:54;96520;;;15.4;61
68628;BME280;55611;48.602;9.490;2022-09-24T06:45:25;96510;;;15.8;61.5
68628;BME280;55611;48.602;9.490;2022-09-24T06:47:56;96510;;;16.1;61.5
68628;BME280;55611;48.602;9.490;2022-09-24T06:50:26;96510;;;16.4;61.5
68628;BME280;55611;48.602;9.490;2022-09-24T06:52:56;96520;;;16.5;61.5
68628;BME280;55611;48.602;9.490;2022-09-24T06:55:27;96520;;;16.1;61.5
68628;BME280;55611;48.602;9.490;2022-09-24T06:58:05;96530;;;16;61.5
68628;BME280;55611;48.602;9.490;2022-09-24T07:00:28;96540;;;15.7;61
68628;BME280;55611;48.602;9.490;2022-09-24T07:02:58;96530;;;15.7;61
68628;BME280;55611;48.602;9.490;2022-09-24T07:05:29;96530;;;15.7;61
68628;BME280;55611;48.602;9.490;2022-09-24T07:07:59;96530;;;15.9;61
68628;BME280;55611;48.602;9.490;2022-09-24T07:10:30;96530;;;16;61
68628;BME280;55611;48.602;9.490;2022-09-24T07:13:00;96530;;;16.1;61
68628;BME280;55611;48.602;9.490;2022-09-24T07:15:33;96530;;;15.9;61
68628;BME280;55611;48.602;9.490;2022-09-24T07:18:02;96550;;;15.7;61
68628;BME280;55611;48.602;9.490;2022-09-24T07:20:32;96540;;;15.6;61
68628;BME280;55611;48.602;9.490;2022-09-24T07:23:03;96550;;;15.6;61
68628;BME280;55611;48.602;9.490;2022-09-24T07:25:33;96550;;;15.5;61
68628;BME280;55611;48.602;9.490;2022-09-24T07:28:04;96540;;;15.7;61
68628;BME280;55611;48.602;9.490;2022-09-24T07:30:34;96540;;;15.7;61
68628;BME280;55611;48.602;9.490;2022-09-24T07:33:05;96550;;;15.8;61
68628;BME280;55611;48.602;9.490;2022-09-24T07:35:37;96550;;;16;61
68628;BME280;55611;48.602;9.490;2022-09-24T07:38:06;96550;;;16.2;61
68628;BME280;55611;48.602;9.490;2022-09-24T07:40:36;96540;;;16.5;61
68628;BME280;55611;48.602;9.490;2022-09-24T07:43:06;96540;;;16.7;61
68628;BME280;55611;48.602;9.490;2022-09-24T07:45:37;96550;;;16.7;61
68628;BME280;55611;48.602;9.490;2022-09-24T07:48:08;96550;;;16.7;61
68628;BME280;55611;48.602;9.490;2022-09-24T07:50:39;96550;;;16.7;61
68628;BME280;55611;48.602;9.490;2022-09-24T07:53:09;96550;;;16.8;61
68628;BME280;55611;48.602;9.490;2022-09-24T07:55:39;96560;;;16.6;61
68628;BME280;55611;48.602;9.490;2022-09-24T07:58:10;96560;;;16.6;61
68628;BME280;55611;48.602;9.490;2022-09-24T08:00:40;96560;;;16.6;61
68628;BME280;55611;48.602;9.490;2022-09-24T08:03:11;96560;;;16.6;61
68628;BME280;55611;48.602;9.490;2022-09-24T08:05:42;96560;;;16.5;61
68628;BME280;55611;48.602;9.490;2022-09-24T08:08:12;96560;;;16.5;61
68628;BME280;55611;48.602;9.490;2022-09-24T08:10:42;96570;;;16.5;61
68628;BME280;55611;48.602;9.490;2022-09-24T08:13:13;96570;;;16.5;61
68628;BME280;55611;48.602;9.490;2022-09-24T08:15:43;96580;;;16.5;61
68628;BME280;55611;48.602;9.490;2022-09-24T08:18:14;96570;;;16.5;61
68628;BME280;55611;48.602;9.490;2022-09-24T08:20:44;96570;;;16.7;61
68628;BME280;55611;48.602;9.490;2022-09-24T08:23:15;96570;;;16.8;61
68628;BME280;55611;48.602;9.490;2022-09-24T08:25:46;96570;;;16.9;61
68628;BME280;55611;48.602;9.490;2022-09-24T08:28:16;96580;;;16.9;61
68628;BME280;55611;48.602;9.490;2022-09-24T08:30:46;96570;;;17;61
68628;BME280;55611;48.602;9.490;2022-09-24T08:33:17;96580;;;17;61
68628;BME280;55611;48.602;9.490;2022-09-24T08:35:47;96580;;;17.1;61
68628;BME280;55611;48.602;9.490;2022-09-24T08:38:18;96580;;;17.2;61
68628;BME280;55611;48.602;9.490;2022-09-24T08:40:52;96580;;;17.3;61
68628;BME280;55611;48.602;9.490;2022-09-24T08:43:54;96580;;;17.4;61
68628;BME280;55611;48.602;9.490;2022-09-24T08:45:51;96580;;;17.5;61
68628;BME280;55611;48.602;9.490;2022-09-24T08:48:20;96590;;;17.5;61
68628;BME280;55611;48.602;9.490;2022-09-24T08:50:52;96590;;;17.5;61
68628;BME280;55611;48.602;9.490;2022-09-24T08:53:21;96580;;;17.4;61
68628;BME280;55611;48.602;9.490;2022-09-24T08:55:52;96580;;;17.4;61
68628;BME280;55611;48.602;9.490;2022-09-24T08:58:56;96580;;;17.3;61
68628;BME280;55611;48.602;9.490;2022-09-24T09:01:27;96590;;;17.3;61
68628;BME280;55611;48.602;9.490;2022-09-24T09:03:27;96580;;;17.4;61
68628;BME280;55611;48.602;9.490;2022-09-24T09:05:55;96590;;;17.5;61
68628;BME280;55611;48.602;9.490;2022-09-24T09:08:27;96580;;;17.5;61
68628;BME280;55611;48.602;9.490;2022-09-24T09:10:57;96580;;;17.6;61
68628;BME280;55611;48.602;9.490;2022-09-24T09:13:27;96580;;;17.6;61
68628;BME280;55611;48.602;9.490;2022-09-24T09:15:59;96590;;;17.7;61
68628;BME280;55611;48.602;9.490;2022-09-24T09:18:29;96580;;;17.8;61
68628;BME280;55611;48.602;9.490;2022-09-24T09:21:02;96590;;;17.8;61
68628;BME280;55611;48.602;9.490;2022-09-24T09:23:31;96590;;;17.8;61
68628;BME280;55611;48.602;9.490;2022-09-24T09:25:58;96580;;;17.9;61
68628;BME280;55611;48.602;9.490;2022-09-24T09:28:28;96580;;;18;61
68628;BME280;55611;48.602;9.490;2022-09-24T09:31:11;96580;;;18;61
68628;BME280;55611;48.602;9.490;2022-09-24T09:38:36;96580;;;18.4;61
68628;BME280;55611;48.602;9.490;2022-09-24T09:41:02;96580;;;18.5;61
68628;BME280;55611;48.602;9.490;2022-09-24T09:43:31;96590;;;18.5;61
68628;BME280;55611;48.602;9.490;2022-09-24T09:46:19;96590;;;18.5;61
68628;BME280;55611;48.602;9.490;2022-09-24T09:48:38;96590;;;18.6;61
68628;BME280;55611;48.602;9.490;2022-09-24T09:51:03;96590;;;18.5;61
68628;BME280;55611;48.602;9.490;2022-09-24T09:53:33;96580;;;18.4;61
68628;BME280;55611;48.602;9.490;2022-09-24T09:56:05;96590;;;18.3;61
68628;BME280;55611;48.602;9.490;2022-09-24T09:58:35;96590;;;18.3;61
68628;BME280;55611;48.602;9.490;2022-09-24T10:01:08;96580;;;18.2;61
68628;BME280;55611;48.602;9.490;2022-09-24T10:03:46;96590;;;18.2;61
68628;BME280;55611;48.602;9.490;2022-09-24T10:06:06;96590;;;18.2;61
68628;BME280;55611;48.602;9.490;2022-09-24T10:08:36;96580;;;18.2;61
68628;BME280;55611;48.602;9.490;2022-09-24T10:11:12;96580;;;18.2;61
68628;BME280;55611;48.602;9.490;2022-09-24T10:13:37;96580;;;18.3;61
68628;BME280;55611;48.602;9.490;2022-09-24T10:16:08;96590;;;18.3;61
68628;BME280;55611;48.602;9.490;2022-09-24T10:18:46;96590;;;18.3;60.5
68628;BME280;55611;48.602;9.490;2022-09-24T10:21:10;96580;;;18.2;61
68628;BME280;55611;48.602;9.490;2022-09-24T10:23:40;96590;;;18;61
68628;BME280;55611;48.602;9.490;2022-09-24T10:26:10;96580;;;18;61
68628;BME280;55611;48.602;9.490;2022-09-24T10:28:44;96590;;;18;61
68628;BME280;55611;48.602;9.490;2022-09-24T10:31:13;96590;;;17.9;61
68628;BME280;55611;48.602;9.490;2022-09-24T10:33:43;96580;;;17.5;61
68628;BME280;55611;48.602;9.490;2022-09-24T10:36:14;96580;;;17.4;61
68628;BME280;55611;48.602;9.490;2022-09-24T10:38:43;96580;;;17.4;61
68628;BME280;55611;48.602;9.490;2022-09-24T10:41:14;96580;;;17.4;61
68628;BME280;55611;48.602;9.490;2022-09-24T10:43:49;96580;;;17.4;61
68628;BME280;55611;48.602;9.490;2022-09-24T10:46:18;96580;;;17.5;61
68628;BME280;55611;48.602;9.490;2022-09-24T10:48:49;96580;;;17.6;61
68628;BME280;55611;48.602;9.490;2022-09-24T10:51:19;96580;;;17.6;61
68628;BME280;55611;48.602;9.490;2022-09-24T10:56:32;96570;;;17.5;61.5
68628;BME280;55611;48.602;9.490;2022-09-24T10:58:56;96570;;;17.6;61.5
68628;BME280;55611;48.602;9.490;2022-09-24T11:01:22;96570;;;17.6;61.5
68628;BME280;55611;48.602;9.490;2022-09-24T11:11:30;96570;;;18;61.5
68628;BME280;55611;48.602;9.490;2022-09-24T11:13:54;96570;;;18.1;61.5
68628;BME280;55611;48.602;9.490;2022-09-24T11:16:34;96570;;;18.2;61.5
68628;BME280;55611;48.602;9.490;2022-09-24T11:18:54;96570;;;18.4;61.5
68628;BME280;55611;48.602;9.490;2022-09-24T11:21:32;96570;;;18.6;61.5
68628;BME280;55611;48.602;9.490;2022-09-24T11:25:01;96570;;;18.8;61.5
68628;BME280;55611;48.602;9.490;2022-09-24T11:31:29;96570;;;19.1;61.5
68628;BME280;55611;48.602;9.490;2022-09-24T11:36:31;96570;;;19.1;61.5
68628;BME280;55611;48.602;9.490;2022-09-24T11:39:13;96570;;;19.1;61.5
68628;BME280;55611;48.602;9.490;2022-09-24T11:42:00;96570;;;18.8;61.5
68628;BME280;55611;48.602;9.490;2022-09-24T11:44:00;96570;;;18.5;61.5
68628;BME280;55611;48.602;9.490;2022-09-24T11:46:32;96580;;;18.4;62
68628;BME280;55611;48.602;9.490;2022-09-24T11:51:35;96560;;;18.7;62
68628;BME280;55611;48.602;9.490;2022-09-24T11:54:31;96560;;;18.9;62
68628;BME280;55611;48.602;9.490;2022-09-24T11:56:30;96560;;;19;62
68628;BME280;55611;48.602;9.490;2022-09-24T11:59:16;96560;;;19.1;61.5
68628;BME280;55611;48.602;9.490;2022-09-24T12:01:30;96550;;;19.2;61.5
68628;BME280;55611;48.602;9.490;2022-09-24T12:04:07;96550;;;19.3;61.5
68628;BME280;55611;48.602;9.490;2022-09-24T12:06:32;96550;;;19.3;61.5
68628;BME280;55611;48.602;9.490;2022-09-24T12:09:13;96550;;;19.3;61.5
68628;BME280;55611;48.602;9.490;2022-09-24T12:11:33;96540;;;19.5;61.5
68628;BME280;55611;48.602;9.490;2022-09-24T12:14:30;96540;;;19.6;61.5
68628;BME280;55611;48.602;9.490;2022-09-24T12:16:35;96540;;;19.5;61.5
68628;BME280;55611;48.602;9.490;2022-09-24T12:21:35;96530;;;19.5;61.5
68628;BME280;55611;48.602;9.490;2022-09-24T12:24:05;96540;;;19.6;61.5
68628;BME280;55611;48.602;9.490;2022-09-24T12:26:35;96530;;;19.6;61.5
68628;BME280;55611;48.602;9.490;2022-09-24T12:29:26;96530;;;19.5;61.5
68628;BME280;55611;48.602;9.490;2022-09-24T12:31:53;96520;;;19.5;61
68628;BME280;55611;48.602;9.490;2022-09-24T12:34:14;96520;;;19.5;61.5
68628;BME280;55611;48.602;9.490;2022-09-24T12:36:44;96520;;;19.6;61.5
68628;BME280;55611;48.602;9.490;2022-09-24T12:39:09;96520;;;19.7;61.5
68628;BME280;55611;48.602;9.490;2022-09-24T12:41:39;96520;;;19.8;61.5
68628;BME280;55611;48.602;9.490;2022-09-24T12:44:14;96510;;;19.9;61.5
68628;BME280;55611;48.602;9.490;2022-09-24T12:46:41;96510;;;20;61.5
68628;BME280;55611;48.602;9.490;2022-09-24T12:49:32;96510;;;20;61.5
68628;BME280;55611;48.602;9.490;2022-09-24T12:51:40;96510;;;20;61.5
68628;BME280;55611;48.602;9.490;2022-09-24T12:54:19;96510;;;20;61.5
68628;BME280;55611;48.602;9.490;2022-09-24T12:56:41;96510;;;20;61.5
68628;BME280;55611;48.602;9.490;2022-09-24T12:59:27;96510;;;20;61.5
68628;BME280;55611;48.602;9.490;2022-09-24T13:01:42;96500;;;19.9;61.5
68628;BME280;55611;48.602;9.490;2022-09-24T13:06:43;96510;;;19.9;61.5
68628;BME280;55611;48.602;9.490;2022-09-24T13:09:45;96500;;;19.9;61.5
68628;BME280;55611;48.602;9.490;2022-09-24T13:11:44;96500;;;19.9;61.5
68628;BME280;55611;48.602;9.490;2022-09-24T13:14:17;96490;;;19.9;61.5
68628;BME280;55611;48.602;9.490;2022-09-24T13:16:45;96500;;;19.8;61.5
68628;BME280;55611;48.602;9.490;2022-09-24T13:19:27;96500;;;19.7;61.5
68628;BME280;55611;48.602;9.490;2022-09-24T13:21:51;96500;;;19.6;61.5
68628;BME280;55611;48.602;9.490;2022-09-24T13:24:22;96500;;;19.5;61.5
68628;BME280;55611;48.602;9.490;2022-09-24T13:26:47;96500;;;19.4;61.5
68628;BME280;55611;48.602;9.490;2022-09-24T13:29:22;96500;;;19.3;61.5
68628;BME280;55611;48.602;9.490;2022-09-24T13:31:49;96500;;;19.3;61.5
68628;BME280;55611;48.602;9.490;2022-09-24T13:34:21;96510;;;19.2;61.5
68628;BME280;55611;48.602;9.490;2022-09-24T13:36:57;96510;;;19.1;61.5
68628;BME280;55611;48.602;9.490;2022-09-24T13:39:30;96510;;;19;61.5
68628;BME280;55611;48.602;9.490;2022-09-24T13:44:23;96500;;;18.6;61.5
68628;BME280;55611;48.602;9.490;2022-09-24T13:46:55;96500;;;18.5;61.5
68628;BME280;55611;48.602;9.490;2022-09-24T13:49:22;96500;;;18.5;61.5
68628;BME280;55611;48.602;9.490;2022-09-24T13:51:56;96500;;;18.4;62
68628;BME280;55611;48.602;9.490;2022-09-24T13:56:55;96500;;;18;62.5
68628;BME280;55611;48.602;9.490;2022-09-24T13:59:24;96500;;;18;62.5
68628;BME280;55611;48.602;9.490;2022-09-24T14:01:54;96500;;;18;62.5
68628;BME280;55611;48.602;9.490;2022-09-24T14:04:25;96500;;;18.1;62.5
68628;BME280;55611;48.602;9.490;2022-09-24T14:06:56;96500;;;18.1;62.5
68628;BME280;55611;48.602;9.490;2022-09-24T14:09:28;96500;;;18.1;62.5
68628;BME280;55611;48.602;9.490;2022-09-24T14:11:57;96490;;;18;62.5
68628;BME280;55611;48.602;9.490;2022-09-24T14:14:28;96500;;;18.1;62
68628;BME280;55611;48.602;9.490;2022-09-24T14:17:06;96500;;;18.2;62
68628;BME280;55611;48.602;9.490;2022-09-24T14:19:28;96490;;;18.3;62
68628;BME280;55611;48.602;9.490;2022-09-24T14:21:58;96490;;;18.3;62
68628;BME280;55611;48.602;9.490;2022-09-24T14:24:31;96490;;;18.3;62
68628;BME280;55611;48.602;9.490;2022-09-24T14:27:04;96490;;;18.3;62
68628;BME280;55611;48.602;9.490;2022-09-24T14:29:33;96490;;;18.3;62
68628;BME280;55611;48.602;9.490;2022-09-24T14:32:01;96490;;;18.3;61.5
68628;BME280;55611;48.602;9.490;2022-09-24T14:34:35;96500;;;18.3;62
68628;BME280;55611;48.602;9.490;2022-09-24T14:37:18;96500;;;18.3;62
68628;BME280;55611;48.602;9.490;2022-09-24T14:39:35;96490;;;18.2;62
68628;BME280;55611;48.602;9.490;2022-09-24T14:42:06;96490;;;18.2;62
68628;BME280;55611;48.602;9.490;2022-09-24T14:44:33;96500;;;18.2;62
68628;BME280;55611;48.602;9.490;2022-09-24T14:47:04;96490;;;18.2;62
68628;BME280;55611;48.602;9.490;2022-09-24T14:49:42;96490;;;18.2;62
68628;BME280;55611;48.602;9.490;2022-09-24T14:52:05;96490;;;18.2;62
68628;BME280;55611;48.602;9.490;2022-09-24T14:54:36;96490;;;18.2;62
68628;BME280;55611;48.602;9.490;2022-09-24T14:57:08;96480;;;18.3;62
68628;BME280;55611;48.602;9.490;2022-09-24T14:59:37;96480;;;18.3;62
68628;BME280;55611;48.602;9.490;2022-09-24T15:02:15;96480;;;18.2;62
68628;BME280;55611;48.602;9.490;2022-09-24T15:04:37;96480;;;18.2;62
68628;BME280;55611;48.602;9.490;2022-09-24T15:07:15;96480;;;18.2;62
68628;BME280;55611;48.602;9.490;2022-09-24T15:09:38;96480;;;18.1;62
68628;BME280;55611;48.602;9.490;2022-09-24T15:12:16;96480;;;18.2;62